Back to Top

Language: 

My Weather Underground Personal Weather Station Historical Data with Graphs...

Delerius Weather Station Historical Data
Daily Summary for March 3, 2017 Units:  Both    English   Metric
« Previous Day
Next Day »
Daily Weekly Monthly Yearly Custom
  High: Low: Average:
Temperature: 45.2 °F /  7.3 °C 40.3 °F /  4.6 °C 42.1 °F /  5.6 °C
Dew Point: 44.7 °F /  7.1 °C 37.2 °F /  2.9 °C 40.3 °F /  4.6 °C
Humidity: 98 % 81 % 93 %
Wind Speed: 11.0 mph /  17.7 km/h - 3.7 mph /  6 km/h
Wind Gust: 20.0 mph /  32.2 km/h - -
Wind:- - ESE
Pressure: 29.70 in /  1005.6 hPa 29.19 in /  988.4 hPa -
Precipitation: 0.30 in /  7.62 mm    
Historical Graphs
 
 
Tabular Data for March 3, 2017
Time Temperature Dew Point Pressure Wind Wind Speed Wind Gust Humidity Rainfall Rate (Hourly) solar Conditions
00:05 42.6 °F /  5.9 °C 37.2 °F /  2.9 °C 29.70 in /  1005.6 hPa South 9.0 mph /  14.5 km/h 16.0 mph /  25.7 km/h 81 % 0.00 in /  0 mm 0 W/m2
00:15 42.8 °F /  6 °C 37.7 °F /  3.2 °C 29.70 in /  1005.6 hPa SW 10.0 mph /  16.1 km/h 15.0 mph /  24.1 km/h 82 % 0.00 in /  0 mm 0 W/m2
00:20 42.8 °F /  6 °C 37.7 °F /  3.2 °C 29.69 in /  1005.3 hPa SW 11.0 mph /  17.7 km/h 11.0 mph /  17.7 km/h 82 % 0.00 in /  0 mm 0 W/m2
00:25 42.8 °F /  6 °C 37.7 °F /  3.2 °C 29.69 in /  1005.3 hPa SW 10.0 mph /  16.1 km/h 11.0 mph /  17.7 km/h 82 % 0.00 in /  0 mm 0 W/m2
00:30 42.8 °F /  6 °C 38.0 °F /  3.3 °C 29.69 in /  1005.3 hPa South 9.0 mph /  14.5 km/h 12.0 mph /  19.3 km/h 83 % 0.00 in /  0 mm 0 W/m2
00:35 42.8 °F /  6 °C 38.0 °F /  3.3 °C 29.69 in /  1005.3 hPa SW 9.0 mph /  14.5 km/h 12.0 mph /  19.3 km/h 83 % 0.00 in /  0 mm 0 W/m2
00:40 42.8 °F /  6 °C 38.0 °F /  3.3 °C 29.69 in /  1005.3 hPa SSW 9.0 mph /  14.5 km/h 9.0 mph /  14.5 km/h 83 % 0.00 in /  0 mm 0 W/m2
00:50 42.9 °F /  6.1 °C 38.4 °F /  3.6 °C 29.68 in /  1005 hPa South 8.0 mph /  12.9 km/h 8.0 mph /  12.9 km/h 84 % 0.00 in /  0 mm 0 W/m2
00:55 42.9 °F /  6.1 °C 38.4 °F /  3.6 °C 29.68 in /  1005 hPa SSW 8.0 mph /  12.9 km/h 8.0 mph /  12.9 km/h 84 % 0.00 in /  0 mm 0 W/m2
01:00 42.9 °F /  6.1 °C 38.4 °F /  3.6 °C 29.68 in /  1005 hPa SW 8.0 mph /  12.9 km/h 8.0 mph /  12.9 km/h 84 % 0.00 in /  0 mm 0 W/m2
01:05 42.9 °F /  6.1 °C 38.4 °F /  3.6 °C 29.68 in /  1005 hPa SW 7.0 mph /  11.3 km/h 20.0 mph /  32.2 km/h 84 % 0.00 in /  0 mm 0 W/m2
01:10 42.9 °F /  6.1 °C 38.4 °F /  3.6 °C 29.68 in /  1005 hPa SSE 7.0 mph /  11.3 km/h 7.0 mph /  11.3 km/h 84 % 0.00 in /  0 mm 0 W/m2
01:20 42.9 °F /  6.1 °C 38.7 °F /  3.7 °C 29.67 in /  1004.6 hPa ESE 7.0 mph /  11.3 km/h 7.0 mph /  11.3 km/h 85 % 0.00 in /  0 mm 0 W/m2
01:30 42.0 °F /  5.6 °C 37.5 °F /  3.1 °C 29.68 in /  1005 hPa East 5.0 mph /  8 km/h 20.0 mph /  32.2 km/h 84 % 0.00 in /  0 mm 0 W/m2
01:35 41.5 °F /  5.3 °C 37.3 °F /  2.9 °C 29.67 in /  1004.6 hPa East 4.0 mph /  6.4 km/h 20.0 mph /  32.2 km/h 85 % 0.00 in /  0 mm 0 W/m2
01:40 41.2 °F /  5.1 °C 37.3 °F /  2.9 °C 29.67 in /  1004.6 hPa ESE 4.0 mph /  6.4 km/h 20.0 mph /  32.2 km/h 86 % 0.00 in /  0 mm 0 W/m2
01:45 41.1 °F /  5.1 °C 37.5 °F /  3.1 °C 29.67 in /  1004.6 hPa East 4.0 mph /  6.4 km/h 20.0 mph /  32.2 km/h 87 % 0.00 in /  0 mm 0 W/m2
01:50 41.0 °F /  5 °C 37.4 °F /  3 °C 29.67 in /  1004.6 hPa East 4.0 mph /  6.4 km/h 4.0 mph /  6.4 km/h 87 % 0.00 in /  0 mm 0 W/m2
01:55 41.0 °F /  5 °C 37.7 °F /  3.2 °C 29.67 in /  1004.6 hPa ESE 5.0 mph /  8 km/h 8.0 mph /  12.9 km/h 88 % 0.00 in /  0 mm 0 W/m2
02:00 41.2 °F /  5.1 °C 37.9 °F /  3.3 °C 29.66 in /  1004.3 hPa ESE 6.0 mph /  9.7 km/h 6.0 mph /  9.7 km/h 88 % 0.00 in /  0 mm 0 W/m2
02:05 41.4 °F /  5.2 °C 38.1 °F /  3.4 °C 29.66 in /  1004.3 hPa ESE 5.0 mph /  8 km/h 20.0 mph /  32.2 km/h 88 % 0.00 in /  0 mm 0 W/m2
02:10 41.6 °F /  5.3 °C 38.6 °F /  3.7 °C 29.66 in /  1004.3 hPa East 5.0 mph /  8 km/h 20.0 mph /  32.2 km/h 89 % 0.00 in /  0 mm 0 W/m2
02:15 41.8 °F /  5.4 °C 38.8 °F /  3.8 °C 29.66 in /  1004.3 hPa SE 6.0 mph /  9.7 km/h 20.0 mph /  32.2 km/h 89 % 0.00 in /  0 mm 0 W/m2
02:20 41.9 °F /  5.5 °C 38.6 °F /  3.7 °C 29.66 in /  1004.3 hPa ESE 5.0 mph /  8 km/h 5.0 mph /  8 km/h 88 % 0.00 in /  0 mm 0 W/m2
02:30 42.1 °F /  5.6 °C 38.8 °F /  3.8 °C 29.66 in /  1004.3 hPa East 5.0 mph /  8 km/h 20.0 mph /  32.2 km/h 88 % 0.00 in /  0 mm 0 W/m2
02:40 42.3 °F /  5.7 °C 39.0 °F /  3.9 °C 29.65 in /  1003.9 hPa ESE 2.0 mph /  3.2 km/h 2.0 mph /  3.2 km/h 88 % 0.00 in /  0 mm 0 W/m2
02:45 42.3 °F /  5.7 °C 39.0 °F /  3.9 °C 29.65 in /  1003.9 hPa ESE 1.0 mph /  1.6 km/h 20.0 mph /  32.2 km/h 88 % 0.00 in /  0 mm 0 W/m2
02:50 42.3 °F /  5.7 °C 39.0 °F /  3.9 °C 29.65 in /  1003.9 hPa ESE 1.0 mph /  1.6 km/h 20.0 mph /  32.2 km/h 88 % 0.00 in /  0 mm 0 W/m2
02:55 42.3 °F /  5.7 °C 39.0 °F /  3.9 °C 29.65 in /  1003.9 hPa ESE 2.0 mph /  3.2 km/h 20.0 mph /  32.2 km/h 88 % 0.00 in /  0 mm 0 W/m2
03:05 42.4 °F /  5.8 °C 39.4 °F /  4.1 °C 29.64 in /  1003.6 hPa ESE 3.0 mph /  4.8 km/h 20.0 mph /  32.2 km/h 89 % 0.00 in /  0 mm 0 W/m2
03:10 42.4 °F /  5.8 °C 39.4 °F /  4.1 °C 29.64 in /  1003.6 hPa East 2.0 mph /  3.2 km/h 20.0 mph /  32.2 km/h 89 % 0.00 in /  0 mm 0 W/m2
03:15 42.5 °F /  5.8 °C 39.5 °F /  4.2 °C 29.64 in /  1003.6 hPa ESE 2.0 mph /  3.2 km/h 20.0 mph /  32.2 km/h 89 % 0.00 in /  0 mm 0 W/m2
03:20 42.5 °F /  5.8 °C 39.5 °F /  4.2 °C 29.64 in /  1003.6 hPa ESE 2.0 mph /  3.2 km/h 2.0 mph /  3.2 km/h 89 % 0.00 in /  0 mm 0 W/m2
03:25 42.5 °F /  5.8 °C 39.5 °F /  4.2 °C 29.63 in /  1003.3 hPa ESE 1.0 mph /  1.6 km/h 4.0 mph /  6.4 km/h 89 % 0.00 in /  0 mm 0 W/m2
03:30 42.5 °F /  5.8 °C 39.5 °F /  4.2 °C 29.63 in /  1003.3 hPa ESE 1.0 mph /  1.6 km/h 20.0 mph /  32.2 km/h 89 % 0.00 in /  0 mm 0 W/m2
03:40 42.5 °F /  5.8 °C 39.5 °F /  4.2 °C 29.63 in /  1003.3 hPa SE 4.0 mph /  6.4 km/h 20.0 mph /  32.2 km/h 89 % 0.00 in /  0 mm 0 W/m2
03:45 42.5 °F /  5.8 °C 39.5 °F /  4.2 °C 29.63 in /  1003.3 hPa SE 4.0 mph /  6.4 km/h 20.0 mph /  32.2 km/h 89 % 0.00 in /  0 mm 0 W/m2
03:55 42.2 °F /  5.7 °C 39.2 °F /  4 °C 29.62 in /  1002.9 hPa SSE 4.0 mph /  6.4 km/h 20.0 mph /  32.2 km/h 89 % 0.00 in /  0 mm 0 W/m2
04:00 42.1 °F /  5.6 °C 39.1 °F /  3.9 °C 29.62 in /  1002.9 hPa SSE 5.0 mph /  8 km/h 20.0 mph /  32.2 km/h 89 % 0.00 in /  0 mm 0 W/m2
04:05 42.1 °F /  5.6 °C 39.1 °F /  3.9 °C 29.61 in /  1002.6 hPa South 5.0 mph /  8 km/h 20.0 mph /  32.2 km/h 89 % 0.00 in /  0 mm 0 W/m2
04:15 41.9 °F /  5.5 °C 39.2 °F /  4 °C 29.61 in /  1002.6 hPa South 6.0 mph /  9.7 km/h 6.0 mph /  9.7 km/h 90 % 0.00 in /  0 mm 0 W/m2
04:20 41.9 °F /  5.5 °C 39.2 °F /  4 °C 29.61 in /  1002.6 hPa South 6.0 mph /  9.7 km/h 6.0 mph /  9.7 km/h 90 % 0.00 in /  0 mm 0 W/m2
04:25 41.8 °F /  5.4 °C 39.1 °F /  3.9 °C 29.61 in /  1002.6 hPa SSW 5.0 mph /  8 km/h 20.0 mph /  32.2 km/h 90 % 0.00 in /  0 mm 0 W/m2
04:30 41.7 °F /  5.4 °C 39.0 °F /  3.9 °C 29.60 in /  1002.3 hPa SSW 4.0 mph /  6.4 km/h 20.0 mph /  32.2 km/h 90 % 0.00 in /  0 mm 0 W/m2
04:35 41.7 °F /  5.4 °C 39.0 °F /  3.9 °C 29.60 in /  1002.3 hPa SSW 3.0 mph /  4.8 km/h 20.0 mph /  32.2 km/h 90 % 0.00 in /  0 mm 0 W/m2
04:45 41.6 °F /  5.3 °C 38.9 °F /  3.8 °C 29.60 in /  1002.3 hPa SSW 2.0 mph /  3.2 km/h 20.0 mph /  32.2 km/h 90 % 0.00 in /  0 mm 0 W/m2
04:50 41.6 °F /  5.3 °C 38.9 °F /  3.8 °C 29.60 in /  1002.3 hPa SE 1.0 mph /  1.6 km/h 1.0 mph /  1.6 km/h 90 % 0.00 in /  0 mm 0 W/m2
04:55 41.5 °F /  5.3 °C 39.1 °F /  3.9 °C 29.59 in /  1001.9 hPa Calm   4.0 mph /  6.4 km/h 91 % 0.00 in /  0 mm 0 W/m2
05:00 41.5 °F /  5.3 °C 39.1 °F /  3.9 °C 29.59 in /  1001.9 hPa NE 1.0 mph /  1.6 km/h 1.0 mph /  1.6 km/h 91 % 0.00 in /  0 mm 0 W/m2
05:05 41.4 °F /  5.2 °C 39.0 °F /  3.9 °C 29.59 in /  1001.9 hPa NE 2.0 mph /  3.2 km/h 2.0 mph /  3.2 km/h 91 % 0.00 in /  0 mm 0 W/m2
05:10 41.4 °F /  5.2 °C 39.0 °F /  3.9 °C 29.59 in /  1001.9 hPa ENE 2.0 mph /  3.2 km/h 20.0 mph /  32.2 km/h 91 % 0.00 in /  0 mm 0 W/m2
05:20 41.4 °F /  5.2 °C 39.0 °F /  3.9 °C 29.59 in /  1001.9 hPa NE 2.0 mph /  3.2 km/h 2.0 mph /  3.2 km/h 91 % 0.00 in /  0 mm 0 W/m2
05:30 41.2 °F /  5.1 °C 38.8 °F /  3.8 °C 29.59 in /  1001.9 hPa East 1.0 mph /  1.6 km/h 20.0 mph /  32.2 km/h 91 % 0.00 in /  0 mm 0 W/m2
05:35 41.1 °F /  5.1 °C 39.0 °F /  3.9 °C 29.59 in /  1001.9 hPa SE 3.0 mph /  4.8 km/h 20.0 mph /  32.2 km/h 92 % 0.00 in /  0 mm 0 W/m2
05:40 41.1 °F /  5.1 °C 39.0 °F /  3.9 °C 29.58 in /  1001.6 hPa SSE 4.0 mph /  6.4 km/h 20.0 mph /  32.2 km/h 92 % 0.00 in /  0 mm 0 W/m2
05:45 41.1 °F /  5.1 °C 39.0 °F /  3.9 °C 29.58 in /  1001.6 hPa SSW 5.0 mph /  8 km/h 20.0 mph /  32.2 km/h 92 % 0.00 in /  0 mm 0 W/m2
05:55 41.1 °F /  5.1 °C 39.0 °F /  3.9 °C 29.58 in /  1001.6 hPa SSW 8.0 mph /  12.9 km/h 20.0 mph /  32.2 km/h 92 % 0.00 in /  0 mm 0 W/m2
06:00 41.2 °F /  5.1 °C 39.1 °F /  3.9 °C 29.58 in /  1001.6 hPa South 9.0 mph /  14.5 km/h 9.0 mph /  14.5 km/h 92 % 0.00 in /  0 mm 0 W/m2
06:05 41.1 °F /  5.1 °C 39.0 °F /  3.9 °C 29.58 in /  1001.6 hPa SSW 8.0 mph /  12.9 km/h 20.0 mph /  32.2 km/h 92 % 0.00 in /  0 mm 0 W/m2
06:10 41.1 °F /  5.1 °C 39.0 °F /  3.9 °C 29.57 in /  1001.2 hPa SSW 7.0 mph /  11.3 km/h 20.0 mph /  32.2 km/h 92 % 0.00 in /  0 mm 0 W/m2
06:15 41.1 °F /  5.1 °C 39.0 °F /  3.9 °C 29.57 in /  1001.2 hPa SSW 7.0 mph /  11.3 km/h 20.0 mph /  32.2 km/h 92 % 0.00 in /  0 mm 0 W/m2
06:25 41.2 °F /  5.1 °C 39.1 °F /  3.9 °C 29.57 in /  1001.2 hPa SW 5.0 mph /  8 km/h 20.0 mph /  32.2 km/h 92 % 0.00 in /  0 mm 0 W/m2
06:30 41.2 °F /  5.1 °C 39.1 °F /  3.9 °C 29.57 in /  1001.2 hPa SSW 5.0 mph /  8 km/h 5.0 mph /  8 km/h 92 % 0.00 in /  0 mm 0 W/m2
06:40 41.2 °F /  5.1 °C 38.8 °F /  3.8 °C 29.56 in /  1000.9 hPa SSW 1.0 mph /  1.6 km/h 1.0 mph /  1.6 km/h 91 % 0.00 in /  0 mm 0 W/m2
06:45 41.2 °F /  5.1 °C 39.1 °F /  3.9 °C 29.56 in /  1000.9 hPa Calm   2.0 mph /  3.2 km/h 92 % 0.00 in /  0 mm 0 W/m2
06:50 41.1 °F /  5.1 °C 38.7 °F /  3.7 °C 29.56 in /  1000.9 hPa SSE 1.0 mph /  1.6 km/h 20.0 mph /  32.2 km/h 91 % 0.00 in /  0 mm 0 W/m2
07:00 41.0 °F /  5 °C 38.9 °F /  3.8 °C 29.55 in /  1000.6 hPa SE 4.0 mph /  6.4 km/h 20.0 mph /  32.2 km/h 92 % 0.00 in /  0 mm 5 W/m2
07:05 40.9 °F /  4.9 °C 38.8 °F /  3.8 °C 29.55 in /  1000.6 hPa South 5.0 mph /  8 km/h 20.0 mph /  32.2 km/h 92 % 0.00 in /  0 mm 7 W/m2
07:10 40.9 °F /  4.9 °C 38.8 °F /  3.8 °C 29.56 in /  1000.9 hPa SSE 6.0 mph /  9.7 km/h 6.0 mph /  9.7 km/h 92 % 0.00 in /  0 mm 9 W/m2
07:15 40.9 °F /  4.9 °C 38.8 °F /  3.8 °C 29.56 in /  1000.9 hPa SSE 5.0 mph /  8 km/h 20.0 mph /  32.2 km/h 92 % 0.00 in /  0 mm 9 W/m2
07:20 40.8 °F /  4.9 °C 38.7 °F /  3.7 °C 29.56 in /  1000.9 hPa SE 5.0 mph /  8 km/h 20.0 mph /  32.2 km/h 92 % 0.00 in /  0 mm 11 W/m2
07:25 40.8 °F /  4.9 °C 38.7 °F /  3.7 °C 29.55 in /  1000.6 hPa ESE 3.0 mph /  4.8 km/h 20.0 mph /  32.2 km/h 92 % 0.00 in /  0 mm 11 W/m2
07:35 40.7 °F /  4.8 °C 38.6 °F /  3.7 °C 29.55 in /  1000.6 hPa SSE 2.0 mph /  3.2 km/h 20.0 mph /  32.2 km/h 92 % 0.00 in /  0 mm 18 W/m2
07:40 40.6 °F /  4.8 °C 38.5 °F /  3.6 °C 29.55 in /  1000.6 hPa SE 3.0 mph /  4.8 km/h 20.0 mph /  32.2 km/h 92 % 0.00 in /  0 mm 18 W/m2
07:45 40.6 °F /  4.8 °C 38.5 °F /  3.6 °C 29.55 in /  1000.6 hPa SE 4.0 mph /  6.4 km/h 20.0 mph /  32.2 km/h 92 % 0.00 in /  0 mm 18 W/m2
07:50 40.6 °F /  4.8 °C 38.5 °F /  3.6 °C 29.55 in /  1000.6 hPa SE 5.0 mph /  8 km/h 20.0 mph /  32.2 km/h 92 % 0.00 in /  0 mm 21 W/m2
07:55 40.6 °F /  4.8 °C 38.5 °F /  3.6 °C 29.55 in /  1000.6 hPa SE 4.0 mph /  6.4 km/h 20.0 mph /  32.2 km/h 92 % 0.00 in /  0 mm 23 W/m2
08:05 40.5 °F /  4.7 °C 38.4 °F /  3.6 °C 29.54 in /  1000.2 hPa ESE 3.0 mph /  4.8 km/h 5.0 mph /  8 km/h 92 % 0.00 in /  0 mm 30 W/m2
08:10 40.5 °F /  4.7 °C 38.6 °F /  3.7 °C 29.54 in /  1000.2 hPa East 3.0 mph /  4.8 km/h 20.0 mph /  32.2 km/h 93 % 0.00 in /  0 mm 32 W/m2
08:20 40.3 °F /  4.6 °C 38.4 °F /  3.6 °C 29.54 in /  1000.2 hPa East 4.0 mph /  6.4 km/h 4.0 mph /  6.4 km/h 93 % 0.00 in /  0 mm 39 W/m2
08:25 40.3 °F /  4.6 °C 38.4 °F /  3.6 °C 29.54 in /  1000.2 hPa ESE 3.0 mph /  4.8 km/h 20.0 mph /  32.2 km/h 93 % 0.00 in /  0 mm 44 W/m2
08:30 40.3 °F /  4.6 °C 38.4 °F /  3.6 °C 29.54 in /  1000.2 hPa ESE 3.0 mph /  4.8 km/h 20.0 mph /  32.2 km/h 93 % 0.00 in /  0 mm 44 W/m2
08:40 40.4 °F /  4.7 °C 38.5 °F /  3.6 °C 29.54 in /  1000.2 hPa SE 4.0 mph /  6.4 km/h 4.0 mph /  6.4 km/h 93 % 0.00 in /  0 mm 51 W/m2
08:45 40.4 °F /  4.7 °C 38.5 °F /  3.6 °C 29.54 in /  1000.2 hPa SE 4.0 mph /  6.4 km/h 20.0 mph /  32.2 km/h 93 % 0.00 in /  0 mm 53 W/m2
08:50 40.5 °F /  4.7 °C 38.6 °F /  3.7 °C 29.53 in /  999.9 hPa SE 4.0 mph /  6.4 km/h 20.0 mph /  32.2 km/h 93 % 0.00 in /  0 mm 53 W/m2
08:55 40.5 °F /  4.7 °C 38.6 °F /  3.7 °C 29.53 in /  999.9 hPa SE 3.0 mph /  4.8 km/h 20.0 mph /  32.2 km/h 93 % 0.00 in /  0 mm 58 W/m2
09:00 40.5 °F /  4.7 °C 38.6 °F /  3.7 °C 29.53 in /  999.9 hPa SE 3.0 mph /  4.8 km/h 3.0 mph /  4.8 km/h 93 % 0.00 in /  0 mm 67 W/m2
09:05 40.5 °F /  4.7 °C 38.6 °F /  3.7 °C 29.52 in /  999.5 hPa SE 2.0 mph /  3.2 km/h 20.0 mph /  32.2 km/h 93 % 0.00 in /  0 mm 81 W/m2
09:10 40.6 °F /  4.8 °C 38.7 °F /  3.7 °C 29.52 in /  999.5 hPa SE 1.0 mph /  1.6 km/h 20.0 mph /  32.2 km/h 93 % 0.00 in /  0 mm 83 W/m2
09:15 40.6 °F /  4.8 °C 38.7 °F /  3.7 °C 29.52 in /  999.5 hPa SE 2.0 mph /  3.2 km/h 20.0 mph /  32.2 km/h 93 % 0.00 in /  0 mm 69 W/m2
09:20 40.7 °F /  4.8 °C 38.8 °F /  3.8 °C 29.52 in /  999.5 hPa SE 3.0 mph /  4.8 km/h 20.0 mph /  32.2 km/h 93 % 0.00 in /  0 mm 60 W/m2
09:25 40.7 °F /  4.8 °C 38.8 °F /  3.8 °C 29.52 in /  999.5 hPa SE 4.0 mph /  6.4 km/h 20.0 mph /  32.2 km/h 93 % 0.00 in /  0 mm 67 W/m2
09:35 40.8 °F /  4.9 °C 38.9 °F /  3.8 °C 29.51 in /  999.2 hPa SE 2.0 mph /  3.2 km/h 20.0 mph /  32.2 km/h 93 % 0.00 in /  0 mm 60 W/m2
09:40 40.7 °F /  4.8 °C 38.8 °F /  3.8 °C 29.51 in /  999.2 hPa SE 4.0 mph /  6.4 km/h 20.0 mph /  32.2 km/h 93 % 0.00 in /  0 mm 63 W/m2
09:50 40.8 °F /  4.9 °C 38.9 °F /  3.8 °C 29.50 in /  998.9 hPa SE 5.0 mph /  8 km/h 5.0 mph /  8 km/h 93 % 0.00 in /  0 mm 63 W/m2
09:55 40.9 °F /  4.9 °C 38.8 °F /  3.8 °C 29.50 in /  998.9 hPa SSE 4.0 mph /  6.4 km/h 20.0 mph /  32.2 km/h 92 % 0.00 in /  0 mm 74 W/m2
10:00 41.0 °F /  5 °C 38.9 °F /  3.8 °C 29.50 in /  998.9 hPa SE 4.0 mph /  6.4 km/h 20.0 mph /  32.2 km/h 92 % 0.00 in /  0 mm 98 W/m2
10:05 41.0 °F /  5 °C 38.9 °F /  3.8 °C 29.50 in /  998.9 hPa SE 4.0 mph /  6.4 km/h 20.0 mph /  32.2 km/h 92 % 0.00 in /  0 mm 109 W/m2
10:10 41.2 °F /  5.1 °C 39.3 °F /  4.1 °C 29.50 in /  998.9 hPa ESE 4.0 mph /  6.4 km/h 20.0 mph /  32.2 km/h 93 % 0.00 in /  0 mm 104 W/m2
10:20 41.5 °F /  5.3 °C 39.3 °F /  4.1 °C 29.50 in /  998.9 hPa ESE 4.0 mph /  6.4 km/h 20.0 mph /  32.2 km/h 92 % 0.00 in /  0 mm 95 W/m2
10:25 41.6 °F /  5.3 °C 39.4 °F /  4.1 °C 29.49 in /  998.5 hPa ESE 4.0 mph /  6.4 km/h 20.0 mph /  32.2 km/h 92 % 0.00 in /  0 mm 98 W/m2
10:30 41.6 °F /  5.3 °C 39.4 °F /  4.1 °C 29.49 in /  998.5 hPa SE 6.0 mph /  9.7 km/h 6.0 mph /  9.7 km/h 92 % 0.00 in /  0 mm 97 W/m2
10:35 41.7 °F /  5.4 °C 39.5 °F /  4.2 °C 29.49 in /  998.5 hPa ESE 6.0 mph /  9.7 km/h 20.0 mph /  32.2 km/h 92 % 0.00 in /  0 mm 105 W/m2
10:40 41.8 °F /  5.4 °C 39.6 °F /  4.2 °C 29.48 in /  998.2 hPa SE 5.0 mph /  8 km/h 20.0 mph /  32.2 km/h 92 % 0.00 in /  0 mm 113 W/m2
10:45 41.9 °F /  5.5 °C 39.7 °F /  4.3 °C 29.48 in /  998.2 hPa ESE 6.0 mph /  9.7 km/h 20.0 mph /  32.2 km/h 92 % 0.00 in /  0 mm 102 W/m2
10:55 42.0 °F /  5.6 °C 39.8 °F /  4.3 °C 29.48 in /  998.2 hPa SE 6.0 mph /  9.7 km/h 20.0 mph /  32.2 km/h 92 % 0.00 in /  0 mm 90 W/m2
11:00 42.0 °F /  5.6 °C 39.8 °F /  4.3 °C 29.48 in /  998.2 hPa SE 7.0 mph /  11.3 km/h 7.0 mph /  11.3 km/h 92 % 0.00 in /  0 mm 74 W/m2
11:10 42.0 °F /  5.6 °C 39.8 °F /  4.3 °C 29.47 in /  997.9 hPa SE 7.0 mph /  11.3 km/h 7.0 mph /  11.3 km/h 92 % 0.00 in /  0 mm 81 W/m2
11:15 42.0 °F /  5.6 °C 39.8 °F /  4.3 °C 29.47 in /  997.9 hPa SSE 7.0 mph /  11.3 km/h 8.0 mph /  12.9 km/h 92 % 0.00 in /  0 mm 88 W/m2
11:20 42.0 °F /  5.6 °C 40.1 °F /  4.5 °C 29.47 in /  997.9 hPa SE 8.0 mph /  12.9 km/h 8.0 mph /  12.9 km/h 93 % 0.00 in /  0 mm 90 W/m2
11:30 41.9 °F /  5.5 °C 40.0 °F /  4.4 °C 29.46 in /  997.5 hPa SSE 7.0 mph /  11.3 km/h 20.0 mph /  32.2 km/h 93 % 0.00 in /  0 mm 86 W/m2
11:35 41.9 °F /  5.5 °C 40.0 °F /  4.4 °C 29.46 in /  997.5 hPa ESE 7.0 mph /  11.3 km/h 20.0 mph /  32.2 km/h 93 % 0.00 in /  0 mm 74 W/m2
11:40 41.9 °F /  5.5 °C 40.0 °F /  4.4 °C 29.45 in /  997.2 hPa SE 6.0 mph /  9.7 km/h 20.0 mph /  32.2 km/h 93 % 0.00 in /  0 mm 69 W/m2
11:45 41.9 °F /  5.5 °C 40.3 °F /  4.6 °C 29.45 in /  997.2 hPa SE 6.0 mph /  9.7 km/h 20.0 mph /  32.2 km/h 94 % 0.00 in /  0 mm 83 W/m2
11:50 42.0 °F /  5.6 °C 40.4 °F /  4.7 °C 29.45 in /  997.2 hPa ESE 6.0 mph /  9.7 km/h 6.0 mph /  9.7 km/h 94 % 0.00 in /  0 mm 90 W/m2
12:00 42.1 °F /  5.6 °C 40.5 °F /  4.7 °C 29.44 in /  996.8 hPa East 5.0 mph /  8 km/h 20.0 mph /  32.2 km/h 94 % 0.00 in /  0 mm 77 W/m2
12:05 42.1 °F /  5.6 °C 40.5 °F /  4.7 °C 29.43 in /  996.5 hPa ESE 6.0 mph /  9.7 km/h 20.0 mph /  32.2 km/h 94 % 0.00 in /  0 mm 79 W/m2
12:10 42.1 °F /  5.6 °C 40.5 °F /  4.7 °C 29.43 in /  996.5 hPa ESE 7.0 mph /  11.3 km/h 20.0 mph /  32.2 km/h 94 % 0.00 in /  0 mm 83 W/m2
12:15 42.1 °F /  5.6 °C 40.5 °F /  4.7 °C 29.42 in /  996.2 hPa East 8.0 mph /  12.9 km/h 20.0 mph /  32.2 km/h 94 % 0.00 in /  0 mm 120 W/m2
12:20 42.1 °F /  5.6 °C 40.5 °F /  4.7 °C 29.42 in /  996.2 hPa East 8.0 mph /  12.9 km/h 8.0 mph /  12.9 km/h 94 % 0.00 in /  0 mm 102 W/m2
12:25 42.2 °F /  5.7 °C 40.6 °F /  4.8 °C 29.42 in /  996.2 hPa ESE 8.0 mph /  12.9 km/h 11.0 mph /  17.7 km/h 94 % 0.00 in /  0 mm 111 W/m2
12:35 42.3 °F /  5.7 °C 40.7 °F /  4.8 °C 29.41 in /  995.8 hPa ESE 8.0 mph /  12.9 km/h 20.0 mph /  32.2 km/h 94 % 0.00 in /  0 mm 102 W/m2
12:45 42.1 °F /  5.6 °C 40.5 °F /  4.7 °C 29.41 in /  995.8 hPa ESE 9.0 mph /  14.5 km/h 9.0 mph /  14.5 km/h 94 % 0.00 in /  0 mm 81 W/m2
12:50 42.1 °F /  5.6 °C 40.5 °F /  4.7 °C 29.40 in /  995.5 hPa SE 8.0 mph /  12.9 km/h 20.0 mph /  32.2 km/h 94 % 0.00 in /  0 mm 81 W/m2
12:55 42.0 °F /  5.6 °C 40.4 °F /  4.7 °C 29.40 in /  995.5 hPa ESE 8.0 mph /  12.9 km/h 20.0 mph /  32.2 km/h 94 % 0.00 in /  0 mm 69 W/m2
13:00 42.1 °F /  5.6 °C 40.5 °F /  4.7 °C 29.40 in /  995.5 hPa SE 7.0 mph /  11.3 km/h 20.0 mph /  32.2 km/h 94 % 0.00 in /  0 mm 70 W/m2
13:10 42.1 °F /  5.6 °C 40.8 °F /  4.9 °C 29.39 in /  995.1 hPa ESE 7.0 mph /  11.3 km/h 20.0 mph /  32.2 km/h 95 % 0.05 in /  1.27 mm 70 W/m2
13:15 42.0 °F /  5.6 °C 40.7 °F /  4.8 °C 29.39 in /  995.1 hPa East 7.0 mph /  11.3 km/h 20.0 mph /  32.2 km/h 95 % 0.05 in /  1.27 mm 83 W/m2
13:20 42.1 °F /  5.6 °C 40.8 °F /  4.9 °C 29.38 in /  994.8 hPa SE 7.0 mph /  11.3 km/h 7.0 mph /  11.3 km/h 95 % 0.05 in /  1.27 mm 76 W/m2
13:25 42.1 °F /  5.6 °C 40.8 °F /  4.9 °C 29.38 in /  994.8 hPa ESE 7.0 mph /  11.3 km/h 20.0 mph /  32.2 km/h 95 % 0.05 in /  1.27 mm 65 W/m2
13:30 42.0 °F /  5.6 °C 40.7 °F /  4.8 °C 29.38 in /  994.8 hPa ESE 7.0 mph /  11.3 km/h 20.0 mph /  32.2 km/h 95 % 0.05 in /  1.27 mm 69 W/m2
13:40 42.0 °F /  5.6 °C 40.7 °F /  4.8 °C 29.37 in /  994.5 hPa East 7.0 mph /  11.3 km/h 7.0 mph /  11.3 km/h 95 % 0.06 in /  1.52 mm 60 W/m2
13:45 42.0 °F /  5.6 °C 40.7 °F /  4.8 °C 29.37 in /  994.5 hPa ESE 8.0 mph /  12.9 km/h 10.0 mph /  16.1 km/h 95 % 0.05 in /  1.27 mm 54 W/m2
13:50 41.9 °F /  5.5 °C 40.6 °F /  4.8 °C 29.37 in /  994.5 hPa SE 8.0 mph /  12.9 km/h 20.0 mph /  32.2 km/h 95 % 0.05 in /  1.27 mm 56 W/m2
13:55 42.0 °F /  5.6 °C 40.7 °F /  4.8 °C 29.37 in /  994.5 hPa ESE 7.0 mph /  11.3 km/h 20.0 mph /  32.2 km/h 95 % 0.05 in /  1.27 mm 42 W/m2
14:05 42.0 °F /  5.6 °C 40.7 °F /  4.8 °C 29.36 in /  994.1 hPa ESE 7.0 mph /  11.3 km/h 20.0 mph /  32.2 km/h 95 % 0.05 in /  1.27 mm 47 W/m2
14:10 42.1 °F /  5.6 °C 40.8 °F /  4.9 °C 29.36 in /  994.1 hPa ESE 7.0 mph /  11.3 km/h 7.0 mph /  11.3 km/h 95 % 0.04 in /  1.02 mm 35 W/m2
14:20 42.1 °F /  5.6 °C 41.0 °F /  5 °C 29.35 in /  993.8 hPa ESE 7.0 mph /  11.3 km/h 20.0 mph /  32.2 km/h 96 % 0.09 in /  2.29 mm 40 W/m2
14:25 42.1 °F /  5.6 °C 41.0 °F /  5 °C 29.35 in /  993.8 hPa ESE 6.0 mph /  9.7 km/h 20.0 mph /  32.2 km/h 96 % 0.08 in /  2.03 mm 49 W/m2
14:30 42.1 °F /  5.6 °C 41.0 °F /  5 °C 29.35 in /  993.8 hPa ESE 6.0 mph /  9.7 km/h 20.0 mph /  32.2 km/h 96 % 0.13 in /  3.3 mm 39 W/m2
14:35 42.2 °F /  5.7 °C 41.1 °F /  5.1 °C 29.35 in /  993.8 hPa ESE 6.0 mph /  9.7 km/h 20.0 mph /  32.2 km/h 96 % 0.08 in /  2.03 mm 32 W/m2
14:40 42.1 °F /  5.6 °C 41.0 °F /  5 °C 29.34 in /  993.5 hPa East 6.0 mph /  9.7 km/h 6.0 mph /  9.7 km/h 96 % 0.08 in /  2.03 mm 32 W/m2
14:50 42.2 °F /  5.7 °C 41.1 °F /  5.1 °C 29.34 in /  993.5 hPa ENE 5.0 mph /  8 km/h 20.0 mph /  32.2 km/h 96 % 0.05 in /  1.27 mm 32 W/m2
14:55 42.1 °F /  5.6 °C 41.0 °F /  5 °C 29.34 in /  993.5 hPa ESE 6.0 mph /  9.7 km/h 20.0 mph /  32.2 km/h 96 % 0.06 in /  1.52 mm 28 W/m2
15:00 42.2 °F /  5.7 °C 41.1 °F /  5.1 °C 29.33 in /  993.1 hPa East 5.0 mph /  8 km/h 5.0 mph /  8 km/h 96 % 0.06 in /  1.52 mm 25 W/m2
15:05 42.2 °F /  5.7 °C 41.1 °F /  5.1 °C 29.33 in /  993.1 hPa ENE 5.0 mph /  8 km/h 20.0 mph /  32.2 km/h 96 % 0.06 in /  1.52 mm 21 W/m2
15:10 42.2 °F /  5.7 °C 41.1 °F /  5.1 °C 29.33 in /  993.1 hPa East 5.0 mph /  8 km/h 5.0 mph /  8 km/h 96 % 0.05 in /  1.27 mm 23 W/m2
15:20 42.2 °F /  5.7 °C 41.1 °F /  5.1 °C 29.33 in /  993.1 hPa NE 5.0 mph /  8 km/h 20.0 mph /  32.2 km/h 96 % 0.05 in /  1.27 mm 21 W/m2
15:25 42.2 °F /  5.7 °C 41.1 °F /  5.1 °C 29.33 in /  993.1 hPa ESE 5.0 mph /  8 km/h 20.0 mph /  32.2 km/h 96 % 0.04 in /  1.02 mm 25 W/m2
15:30 42.2 °F /  5.7 °C 41.1 °F /  5.1 °C 29.32 in /  992.8 hPa East 4.0 mph /  6.4 km/h 4.0 mph /  6.4 km/h 96 % 0.04 in /  1.02 mm 23 W/m2
15:40 42.3 °F /  5.7 °C 41.5 °F /  5.3 °C 29.32 in /  992.8 hPa East 4.0 mph /  6.4 km/h 20.0 mph /  32.2 km/h 97 % 0.06 in /  1.52 mm 21 W/m2
15:45 42.3 °F /  5.7 °C 41.5 °F /  5.3 °C 29.32 in /  992.8 hPa ENE 4.0 mph /  6.4 km/h 20.0 mph /  32.2 km/h 97 % 0.06 in /  1.52 mm 18 W/m2
15:55 42.3 °F /  5.7 °C 41.2 °F /  5.1 °C 29.31 in /  992.4 hPa ESE 4.0 mph /  6.4 km/h 20.0 mph /  32.2 km/h 96 % 0.05 in /  1.27 mm 21 W/m2
16:00 42.3 °F /  5.7 °C 41.2 °F /  5.1 °C 29.31 in /  992.4 hPa East 3.0 mph /  4.8 km/h 20.0 mph /  32.2 km/h 96 % 0.05 in /  1.27 mm 21 W/m2
16:05 42.3 °F /  5.7 °C 41.2 °F /  5.1 °C 29.31 in /  992.4 hPa SE 3.0 mph /  4.8 km/h 20.0 mph /  32.2 km/h 96 % 0.05 in /  1.27 mm 18 W/m2
16:10 42.3 °F /  5.7 °C 41.5 °F /  5.3 °C 29.30 in /  992.1 hPa ENE 3.0 mph /  4.8 km/h 3.0 mph /  4.8 km/h 97 % 0.04 in /  1.02 mm 16 W/m2
16:15 42.4 °F /  5.8 °C 41.6 °F /  5.3 °C 29.30 in /  992.1 hPa ENE 3.0 mph /  4.8 km/h 20.0 mph /  32.2 km/h 97 % 0.04 in /  1.02 mm 14 W/m2
16:20 42.3 °F /  5.7 °C 41.5 °F /  5.3 °C 29.30 in /  992.1 hPa ENE 2.0 mph /  3.2 km/h 20.0 mph /  32.2 km/h 97 % 0.05 in /  1.27 mm 14 W/m2
16:30 42.4 °F /  5.8 °C 41.6 °F /  5.3 °C 29.30 in /  992.1 hPa East 3.0 mph /  4.8 km/h 3.0 mph /  4.8 km/h 97 % 0.05 in /  1.27 mm 14 W/m2
16:35 42.4 °F /  5.8 °C 41.6 °F /  5.3 °C 29.30 in /  992.1 hPa ENE 2.0 mph /  3.2 km/h 4.0 mph /  6.4 km/h 97 % 0.06 in /  1.52 mm 12 W/m2
16:40 42.4 °F /  5.8 °C 41.6 °F /  5.3 °C 29.30 in /  992.1 hPa ENE 2.0 mph /  3.2 km/h 2.0 mph /  3.2 km/h 97 % 0.06 in /  1.52 mm 11 W/m2
16:45 42.4 °F /  5.8 °C 41.6 °F /  5.3 °C 29.29 in /  991.8 hPa East 2.0 mph /  3.2 km/h 20.0 mph /  32.2 km/h 97 % 0.05 in /  1.27 mm 12 W/m2
16:55 42.5 °F /  5.8 °C 41.7 °F /  5.4 °C 29.29 in /  991.8 hPa ENE 3.0 mph /  4.8 km/h 20.0 mph /  32.2 km/h 97 % 0.06 in /  1.52 mm 12 W/m2
17:00 42.5 °F /  5.8 °C 41.7 °F /  5.4 °C 29.29 in /  991.8 hPa NE 3.0 mph /  4.8 km/h 20.0 mph /  32.2 km/h 97 % 0.06 in /  1.52 mm 9 W/m2
17:10 42.5 °F /  5.8 °C 41.7 °F /  5.4 °C 29.28 in /  991.4 hPa ENE 3.0 mph /  4.8 km/h 3.0 mph /  4.8 km/h 97 % 0.04 in /  1.02 mm 11 W/m2
17:15 42.5 °F /  5.8 °C 41.7 °F /  5.4 °C 29.28 in /  991.4 hPa NE 3.0 mph /  4.8 km/h 6.0 mph /  9.7 km/h 97 % 0.00 in /  0 mm 9 W/m2
17:20 42.5 °F /  5.8 °C 41.7 °F /  5.4 °C 29.28 in /  991.4 hPa NE 4.0 mph /  6.4 km/h 20.0 mph /  32.2 km/h 97 % 0.00 in /  0 mm 5 W/m2
17:25 42.5 °F /  5.8 °C 41.7 °F /  5.4 °C 29.28 in /  991.4 hPa ENE 4.0 mph /  6.4 km/h 20.0 mph /  32.2 km/h 97 % 0.00 in /  0 mm 0 W/m2
17:35 42.5 °F /  5.8 °C 41.7 °F /  5.4 °C 29.27 in /  991.1 hPa ENE 3.0 mph /  4.8 km/h 20.0 mph /  32.2 km/h 97 % 0.00 in /  0 mm 0 W/m2
17:40 42.5 °F /  5.8 °C 41.7 °F /  5.4 °C 29.27 in /  991.1 hPa NE 3.0 mph /  4.8 km/h 20.0 mph /  32.2 km/h 97 % 0.00 in /  0 mm 0 W/m2
17:45 42.5 °F /  5.8 °C 41.7 °F /  5.4 °C 29.27 in /  991.1 hPa NE 4.0 mph /  6.4 km/h 20.0 mph /  32.2 km/h 97 % 0.00 in /  0 mm 0 W/m2
17:50 42.5 °F /  5.8 °C 41.7 °F /  5.4 °C 29.27 in /  991.1 hPa ENE 3.0 mph /  4.8 km/h 3.0 mph /  4.8 km/h 97 % 0.00 in /  0 mm 0 W/m2
17:55 42.5 °F /  5.8 °C 41.7 °F /  5.4 °C 29.27 in /  991.1 hPa ENE 2.0 mph /  3.2 km/h 20.0 mph /  32.2 km/h 97 % 0.00 in /  0 mm 0 W/m2
18:00 42.5 °F /  5.8 °C 41.7 °F /  5.4 °C 29.27 in /  991.1 hPa NE 2.0 mph /  3.2 km/h 20.0 mph /  32.2 km/h 97 % 0.00 in /  0 mm 0 W/m2
18:10 42.5 °F /  5.8 °C 41.7 °F /  5.4 °C 29.27 in /  991.1 hPa NE 2.0 mph /  3.2 km/h 20.0 mph /  32.2 km/h 97 % 0.00 in /  0 mm 0 W/m2
18:15 42.5 °F /  5.8 °C 41.7 °F /  5.4 °C 29.27 in /  991.1 hPa ENE 2.0 mph /  3.2 km/h 20.0 mph /  32.2 km/h 97 % 0.00 in /  0 mm 0 W/m2
18:20 42.5 °F /  5.8 °C 41.7 °F /  5.4 °C 29.26 in /  990.7 hPa NE 2.0 mph /  3.2 km/h 20.0 mph /  32.2 km/h 97 % 0.00 in /  0 mm 0 W/m2
18:30 42.5 °F /  5.8 °C 41.7 °F /  5.4 °C 29.26 in /  990.7 hPa East 1.0 mph /  1.6 km/h 20.0 mph /  32.2 km/h 97 % 0.00 in /  0 mm 0 W/m2
18:35 42.5 °F /  5.8 °C 41.7 °F /  5.4 °C 29.26 in /  990.7 hPa East 1.0 mph /  1.6 km/h 20.0 mph /  32.2 km/h 97 % 0.00 in /  0 mm 0 W/m2
18:45 42.5 °F /  5.8 °C 41.7 °F /  5.4 °C 29.25 in /  990.4 hPa ENE 2.0 mph /  3.2 km/h 20.0 mph /  32.2 km/h 97 % 0.00 in /  0 mm 0 W/m2
18:50 42.6 °F /  5.9 °C 41.8 °F /  5.4 °C 29.25 in /  990.4 hPa NE 2.0 mph /  3.2 km/h 2.0 mph /  3.2 km/h 97 % 0.00 in /  0 mm 0 W/m2
18:55 42.6 °F /  5.9 °C 41.8 °F /  5.4 °C 29.25 in /  990.4 hPa NE 1.0 mph /  1.6 km/h 20.0 mph /  32.2 km/h 97 % 0.00 in /  0 mm 0 W/m2
19:00 42.6 °F /  5.9 °C 41.8 °F /  5.4 °C 29.25 in /  990.4 hPa Calm   20.0 mph /  32.2 km/h 97 % 0.00 in /  0 mm 0 W/m2
19:05 42.6 °F /  5.9 °C 41.8 °F /  5.4 °C 29.25 in /  990.4 hPa Calm   20.0 mph /  32.2 km/h 97 % 0.00 in /  0 mm 0 W/m2
19:15 42.6 °F /  5.9 °C 41.8 °F /  5.4 °C 29.25 in /  990.4 hPa Calm   20.0 mph /  32.2 km/h 97 % 0.00 in /  0 mm 0 W/m2
19:20 42.6 °F /  5.9 °C 41.8 °F /  5.4 °C 29.25 in /  990.4 hPa Calm   20.0 mph /  32.2 km/h 97 % 0.00 in /  0 mm 0 W/m2
19:25 42.7 °F /  5.9 °C 41.9 °F /  5.5 °C 29.24 in /  990.1 hPa Calm   20.0 mph /  32.2 km/h 97 % 0.00 in /  0 mm 0 W/m2
19:30 42.7 °F /  5.9 °C 42.2 °F /  5.7 °C 29.24 in /  990.1 hPa Calm   20.0 mph /  32.2 km/h 98 % 0.00 in /  0 mm 0 W/m2
19:35 42.7 °F /  5.9 °C 42.2 °F /  5.7 °C 29.25 in /  990.4 hPa Calm   20.0 mph /  32.2 km/h 98 % 0.00 in /  0 mm 0 W/m2
19:40 42.7 °F /  5.9 °C 42.2 °F /  5.7 °C 29.25 in /  990.4 hPa Calm   20.0 mph /  32.2 km/h 98 % 0.04 in /  1.02 mm 0 W/m2
19:50 42.8 °F /  6 °C 42.3 °F /  5.7 °C 29.24 in /  990.1 hPa Calm   20.0 mph /  32.2 km/h 98 % 0.05 in /  1.27 mm 0 W/m2
19:55 42.8 °F /  6 °C 42.3 °F /  5.7 °C 29.24 in /  990.1 hPa Calm   20.0 mph /  32.2 km/h 98 % 0.05 in /  1.27 mm 0 W/m2
20:05 42.8 °F /  6 °C 42.3 °F /  5.7 °C 29.24 in /  990.1 hPa Calm   20.0 mph /  32.2 km/h 98 % 0.05 in /  1.27 mm 0 W/m2
20:10 42.9 °F /  6.1 °C 42.4 °F /  5.8 °C 29.24 in /  990.1 hPa Calm   20.0 mph /  32.2 km/h 98 % 0.05 in /  1.27 mm 0 W/m2
20:15 42.9 °F /  6.1 °C 42.4 °F /  5.8 °C 29.24 in /  990.1 hPa Calm   20.0 mph /  32.2 km/h 98 % 0.04 in /  1.02 mm 0 W/m2
20:25 42.9 °F /  6.1 °C 42.4 °F /  5.8 °C 29.23 in /  989.7 hPa Calm   20.0 mph /  32.2 km/h 98 % 0.00 in /  0 mm 0 W/m2
20:30 43.0 °F /  6.1 °C 42.5 °F /  5.8 °C 29.23 in /  989.7 hPa Calm   20.0 mph /  32.2 km/h 98 % 0.00 in /  0 mm 0 W/m2
20:35 42.9 °F /  6.1 °C 42.4 °F /  5.8 °C 29.23 in /  989.7 hPa Calm   20.0 mph /  32.2 km/h 98 % 0.00 in /  0 mm 0 W/m2
20:40 42.9 °F /  6.1 °C 42.4 °F /  5.8 °C 29.23 in /  989.7 hPa Calm   20.0 mph /  32.2 km/h 98 % 0.04 in /  1.02 mm 0 W/m2
20:45 42.9 °F /  6.1 °C 42.4 °F /  5.8 °C 29.23 in /  989.7 hPa Calm   20.0 mph /  32.2 km/h 98 % 0.04 in /  1.02 mm 0 W/m2
20:55 42.9 °F /  6.1 °C 42.4 °F /  5.8 °C 29.23 in /  989.7 hPa Calm   20.0 mph /  32.2 km/h 98 % 0.00 in /  0 mm 0 W/m2
21:00 42.9 °F /  6.1 °C 42.4 °F /  5.8 °C 29.22 in /  989.4 hPa Calm   20.0 mph /  32.2 km/h 98 % 0.00 in /  0 mm 0 W/m2
21:10 42.9 °F /  6.1 °C 42.4 °F /  5.8 °C 29.22 in /  989.4 hPa Calm   20.0 mph /  32.2 km/h 98 % 0.00 in /  0 mm 0 W/m2
21:15 42.9 °F /  6.1 °C 42.4 °F /  5.8 °C 29.22 in /  989.4 hPa Calm   20.0 mph /  32.2 km/h 98 % 0.00 in /  0 mm 0 W/m2
21:20 42.9 °F /  6.1 °C 42.4 °F /  5.8 °C 29.22 in /  989.4 hPa Calm   20.0 mph /  32.2 km/h 98 % 0.00 in /  0 mm 0 W/m2
21:30 42.8 °F /  6 °C 42.0 °F /  5.6 °C 29.22 in /  989.4 hPa Calm   20.0 mph /  32.2 km/h 97 % 0.00 in /  0 mm 0 W/m2
21:35 42.8 °F /  6 °C 42.0 °F /  5.6 °C 29.22 in /  989.4 hPa Calm   20.0 mph /  32.2 km/h 97 % 0.00 in /  0 mm 0 W/m2
21:40 42.7 °F /  5.9 °C 41.9 °F /  5.5 °C 29.22 in /  989.4 hPa Calm   20.0 mph /  32.2 km/h 97 % 0.00 in /  0 mm 0 W/m2
21:45 42.7 °F /  5.9 °C 41.9 °F /  5.5 °C 29.22 in /  989.4 hPa Calm   20.0 mph /  32.2 km/h 97 % 0.00 in /  0 mm 0 W/m2
21:50 42.7 °F /  5.9 °C 41.9 °F /  5.5 °C 29.21 in /  989.1 hPa Calm   20.0 mph /  32.2 km/h 97 % 0.00 in /  0 mm 0 W/m2
21:55 42.7 °F /  5.9 °C 42.2 °F /  5.7 °C 29.21 in /  989.1 hPa Calm   20.0 mph /  32.2 km/h 98 % 0.00 in /  0 mm 0 W/m2
22:05 42.7 °F /  5.9 °C 42.2 °F /  5.7 °C 29.21 in /  989.1 hPa Calm   20.0 mph /  32.2 km/h 98 % 0.00 in /  0 mm 0 W/m2
22:10 42.7 °F /  5.9 °C 42.2 °F /  5.7 °C 29.21 in /  989.1 hPa Calm   20.0 mph /  32.2 km/h 98 % 0.00 in /  0 mm 0 W/m2
22:15 42.7 °F /  5.9 °C 42.2 °F /  5.7 °C 29.21 in /  989.1 hPa Calm   20.0 mph /  32.2 km/h 98 % 0.00 in /  0 mm 0 W/m2
22:20 42.7 °F /  5.9 °C 42.2 °F /  5.7 °C 29.21 in /  989.1 hPa Calm   20.0 mph /  32.2 km/h 98 % 0.00 in /  0 mm 0 W/m2
22:30 42.8 °F /  6 °C 42.3 °F /  5.7 °C 29.20 in /  988.7 hPa Calm   20.0 mph /  32.2 km/h 98 % 0.00 in /  0 mm 0 W/m2
22:40 42.9 °F /  6.1 °C 42.4 °F /  5.8 °C 29.20 in /  988.7 hPa Calm   20.0 mph /  32.2 km/h 98 % 0.00 in /  0 mm 0 W/m2
22:45 43.0 °F /  6.1 °C 42.5 °F /  5.8 °C 29.20 in /  988.7 hPa Calm   20.0 mph /  32.2 km/h 98 % 0.00 in /  0 mm 0 W/m2
22:50 43.1 °F /  6.2 °C 42.6 °F /  5.9 °C 29.20 in /  988.7 hPa Calm   20.0 mph /  32.2 km/h 98 % 0.00 in /  0 mm 0 W/m2
23:00 43.5 °F /  6.4 °C 43.0 °F /  6.1 °C 29.20 in /  988.7 hPa ENE 1.0 mph /  1.6 km/h 20.0 mph /  32.2 km/h 98 % 0.00 in /  0 mm 0 W/m2
23:10 44.1 °F /  6.7 °C 43.6 °F /  6.4 °C 29.20 in /  988.7 hPa SE 2.0 mph /  3.2 km/h 20.0 mph /  32.2 km/h 98 % 0.00 in /  0 mm 0 W/m2
23:15 44.3 °F /  6.8 °C 43.8 °F /  6.6 °C 29.19 in /  988.4 hPa SE 2.0 mph /  3.2 km/h 20.0 mph /  32.2 km/h 98 % 0.00 in /  0 mm 0 W/m2
23:20 44.4 °F /  6.9 °C 43.9 °F /  6.6 °C 29.19 in /  988.4 hPa SE 2.0 mph /  3.2 km/h 2.0 mph /  3.2 km/h 98 % 0.00 in /  0 mm 0 W/m2
23:25 44.5 °F /  6.9 °C 44.0 °F /  6.7 °C 29.19 in /  988.4 hPa SE 1.0 mph /  1.6 km/h 4.0 mph /  6.4 km/h 98 % 0.00 in /  0 mm 0 W/m2
23:30 44.7 °F /  7.1 °C 44.2 °F /  6.8 °C 29.19 in /  988.4 hPa SE 2.0 mph /  3.2 km/h 20.0 mph /  32.2 km/h 98 % 0.00 in /  0 mm 0 W/m2
23:35 44.8 °F /  7.1 °C 44.3 °F /  6.8 °C 29.19 in /  988.4 hPa SE 2.0 mph /  3.2 km/h 20.0 mph /  32.2 km/h 98 % 0.00 in /  0 mm 0 W/m2
23:45 45.1 °F /  7.3 °C 44.6 °F /  7 °C 29.19 in /  988.4 hPa SE 1.0 mph /  1.6 km/h 20.0 mph /  32.2 km/h 98 % 0.00 in /  0 mm 0 W/m2
23:50 45.1 °F /  7.3 °C 44.6 °F /  7 °C 29.19 in /  988.4 hPa SE 2.0 mph /  3.2 km/h 20.0 mph /  32.2 km/h 98 % 0.00 in /  0 mm 0 W/m2
23:55 45.2 °F /  7.3 °C 44.7 °F /  7.1 °C 29.19 in /  988.4 hPa SE 2.0 mph /  3.2 km/h 20.0 mph /  32.2 km/h 98 % 0.00 in /  0 mm 0 W/m2
Delerius-Weather
Compliments of Weather Underground - 2 mb

Data updates at regular intervals.